Time;durP1;ratioP1;P1;durP2;ratioP2;P2;SDS_P1;SDS_P2;PMS_P1;PMS_P2;Temp;Humidity;BMP_temperature;BMP_pressure;BME280_temperature;BME280_humidity;BME280_pressure;Samples;Min_cycle;Max_cycle;Signal;HPM_P1;HPM_P2
2022/06/06 00:01:52;;;;;;;0.00;0.00;;;14.80;99.90;;;;;;4942881;28;20047;-85
2022/06/06 00:04:19;;;;;;;0.00;0.00;;;14.80;99.90;;;;;;4969065;28;20481;-85
2022/06/06 00:06:45;;;;;;;1.48;0.28;;;14.80;99.90;;;;;;4962954;28;20046;-83
2022/06/06 00:09:13;;;;;;;0.38;0.28;;;14.70;99.90;;;;;;4991806;28;20117;-83
2022/06/06 00:11:40;;;;;;;0.10;0.10;;;14.70;99.90;;;;;;4994658;28;20042;-83
2022/06/06 00:14:08;;;;;;;0.00;0.00;;;14.60;99.90;;;;;;4993380;28;20050;-83
2022/06/06 00:16:35;;;;;;;0.45;0.15;;;14.60;99.90;;;;;;4977688;28;20096;-83
2022/06/06 00:19:02;;;;;;;0.45;0.45;;;14.60;99.90;;;;;;4978504;28;20046;-83
2022/06/06 00:21:28;;;;;;;0.60;0.60;;;14.60;99.90;;;;;;4974554;28;20054;-83
2022/06/06 00:23:59;;;;;;;0.00;0.00;;;14.60;99.90;;;;;;5004354;28;20038;-84
2022/06/06 00:26:26;;;;;;;0.08;0.08;;;14.60;99.90;;;;;;4982676;28;20038;-84
2022/06/06 00:28:52;;;;;;;0.00;0.00;;;14.50;99.90;;;;;;4974285;28;20045;-85
2022/06/06 00:36:47;;;;;;;0.30;0.30;;;14.50;99.90;;;;;;4986622;28;20042;-84
2022/06/06 00:39:16;;;;;;;0.30;0.30;;;14.50;99.90;;;;;;4963804;28;20034;-85
2022/06/06 00:41:44;;;;;;;0.10;0.10;;;14.40;99.90;;;;;;4976691;28;20038;-84
2022/06/06 00:44:22;;;;;;;0.95;0.57;;;14.40;99.90;;;;;;4993488;28;20101;-84
2022/06/06 00:47:05;;;;;;;0.05;0.05;;;14.40;99.90;;;;;;4991731;28;20046;-84
2022/06/06 00:49:41;;;;;;;0.52;0.52;;;14.30;99.90;;;;;;5009558;28;20065;-84
2022/06/06 00:52:23;;;;;;;0.77;0.77;;;14.30;99.90;;;;;;4993434;28;20117;-84
2022/06/06 00:54:53;;;;;;;0.00;0.00;;;14.30;99.90;;;;;;4977198;28;20086;-84
2022/06/06 00:57:24;;;;;;;0.52;0.52;;;14.20;99.90;;;;;;4976096;28;20623;-86
2022/06/06 00:59:52;;;;;;;0.08;0.08;;;14.20;99.90;;;;;;4993498;28;20129;-86
2022/06/06 01:02:18;;;;;;;0.47;0.20;;;14.40;99.90;;;;;;4993288;28;20511;-86
2022/06/06 01:04:44;;;;;;;0.65;0.52;;;14.40;99.90;;;;;;4977039;28;20400;-86
2022/06/06 01:07:11;;;;;;;0.10;0.10;;;14.10;99.90;;;;;;4992307;28;20038;-86
2022/06/06 01:09:40;;;;;;;0.82;0.57;;;14.00;99.90;;;;;;4976952;28;20452;-86
2022/06/06 01:12:12;;;;;;;0.10;0.10;;;14.00;99.90;;;;;;4974943;28;20423;-86
2022/06/06 01:14:47;;;;;;;0.95;0.32;;;13.90;99.90;;;;;;4992085;28;20041;-86
2022/06/06 01:17:25;;;;;;;0.10;0.10;;;13.90;99.90;;;;;;4992392;28;20050;-86
2022/06/06 01:20:28;;;;;;;0.10;0.10;;;13.90;99.90;;;;;;4976926;28;20050;-86
2022/06/06 01:23:11;;;;;;;0.50;0.50;;;13.80;99.90;;;;;;4957659;28;20046;-86
2022/06/06 01:26:05;;;;;;;0.47;0.47;;;13.80;99.90;;;;;;4959136;28;20390;-86
2022/06/06 01:28:39;;;;;;;0.10;0.10;;;13.70;99.90;;;;;;4973471;28;20035;-86
2022/06/06 01:31:17;;;;;;;0.20;0.20;;;13.70;99.90;;;;;;4973780;28;20046;-85
2022/06/06 01:33:59;;;;;;;0.22;0.22;;;13.70;99.90;;;;;;4974339;28;20049;-85
2022/06/06 01:36:29;;;;;;;0.10;0.10;;;13.70;99.90;;;;;;4969314;28;20066;-85
2022/06/06 01:38:57;;;;;;;0.20;0.20;;;13.70;99.90;;;;;;4985484;28;20046;-85
2022/06/06 01:41:47;;;;;;;0.20;0.20;;;13.70;99.90;;;;;;4976419;28;20459;-86
2022/06/06 01:44:34;;;;;;;0.00;0.00;;;13.60;99.90;;;;;;4992812;28;20078;-86
2022/06/06 01:47:03;;;;;;;0.25;0.25;;;13.50;99.90;;;;;;4985132;28;20031;-86
2022/06/06 01:49:32;;;;;;;0.28;0.28;;;13.50;99.90;;;;;;4973438;28;20051;-87
2022/06/06 01:51:59;;;;;;;0.30;0.28;;;13.50;99.90;;;;;;4974588;28;20046;-87
2022/06/06 01:54:24;;;;;;;0.22;0.20;;;13.50;99.90;;;;;;4977494;28;20046;-87
2022/06/06 01:56:50;;;;;;;0.17;0.17;;;13.40;99.90;;;;;;4978875;28;20492;-86
2022/06/06 01:59:16;;;;;;;0.57;0.57;;;13.40;99.90;;;;;;4961259;28;20047;-87
2022/06/06 02:01:41;;;;;;;0.22;0.13;;;13.40;99.90;;;;;;4960972;28;20481;-87
2022/06/06 02:04:07;;;;;;;0.10;0.10;;;13.40;99.90;;;;;;4958390;28;20570;-83
2022/06/06 02:06:33;;;;;;;0.15;0.15;;;13.40;99.90;;;;;;4980595;28;20046;-84
2022/06/06 02:08:58;;;;;;;0.20;0.20;;;13.30;99.90;;;;;;4974787;28;20400;-84
2022/06/06 02:11:24;;;;;;;0.60;0.60;;;13.30;99.90;;;;;;4990054;28;20043;-84
2022/06/06 02:13:50;;;;;;;0.52;0.52;;;13.40;99.90;;;;;;4960807;28;20043;-84
2022/06/06 02:16:15;;;;;;;0.38;0.15;;;13.40;99.90;;;;;;4960996;28;20057;-84
2022/06/06 02:18:41;;;;;;;0.43;0.30;;;13.40;99.90;;;;;;4985552;28;20420;-84
2022/06/06 02:21:07;;;;;;;0.20;0.20;;;13.40;99.90;;;;;;4963939;28;20050;-84
2022/06/06 02:23:34;;;;;;;0.00;0.00;;;13.30;99.90;;;;;;4963838;28;20543;-84
2022/06/06 02:26:00;;;;;;;0.20;0.20;;;13.40;99.90;;;;;;4979949;28;20034;-84
2022/06/06 02:28:26;;;;;;;0.25;0.25;;;13.40;99.90;;;;;;4990127;28;20093;-84
2022/06/06 02:30:52;;;;;;;0.20;0.20;;;13.40;99.90;;;;;;4996108;28;20053;-83
2022/06/06 02:33:18;;;;;;;0.20;0.20;;;13.40;99.90;;;;;;4985316;28;20089;-84
2022/06/06 02:35:44;;;;;;;0.22;0.22;;;13.40;99.90;;;;;;4960446;28;20046;-84
2022/06/06 02:38:12;;;;;;;0.10;0.10;;;13.40;99.90;;;;;;4960306;28;20050;-84
2022/06/06 02:40:40;;;;;;;0.35;0.35;;;13.40;99.90;;;;;;4967175;28;20038;-83
2022/06/06 02:43:06;;;;;;;0.15;0.15;;;13.40;99.90;;;;;;4963934;28;20120;-83
2022/06/06 02:45:32;;;;;;;0.20;0.20;;;13.40;99.90;;;;;;4979852;28;20134;-84
2022/06/06 02:47:59;;;;;;;0.20;0.20;;;13.40;99.90;;;;;;4979455;28;20042;-83
2022/06/06 02:50:28;;;;;;;0.98;0.50;;;13.40;99.90;;;;;;4978254;28;20133;-84
2022/06/06 02:52:54;;;;;;;0.57;0.57;;;13.40;99.90;;;;;;4979676;28;20476;-87
2022/06/06 02:55:21;;;;;;;0.10;0.10;;;13.40;99.90;;;;;;4995578;28;20166;-87
2022/06/06 02:57:50;;;;;;;0.10;0.10;;;13.40;99.90;;;;;;4995474;28;20046;-87
2022/06/06 03:00:26;;;;;;;0.10;0.10;;;13.40;99.90;;;;;;4975541;28;20611;-87
2022/06/06 03:02:53;;;;;;;0.13;0.13;;;13.40;99.90;;;;;;4959605;28;20473;-87
2022/06/06 03:05:19;;;;;;;0.10;0.10;;;13.40;99.90;;;;;;4975311;28;20051;-87
2022/06/06 03:08:05;;;;;;;1.35;0.25;;;13.40;99.90;;;;;;4959667;28;20034;-87
2022/06/06 03:10:53;;;;;;;0.10;0.10;;;13.40;99.90;;;;;;4977384;28;20050;-84
2022/06/06 03:13:54;;;;;;;0.25;0.25;;;13.40;99.90;;;;;;4995309;28;20057;-84
2022/06/06 03:22:52;;;;;;;0.00;0.00;;;13.40;99.90;;;;;;4982372;28;20047;-85
2022/06/06 03:25:43;;;;;;;0.10;0.10;;;13.40;99.90;;;;;;4975963;28;20047;-85
2022/06/06 03:28:15;;;;;;;0.10;0.10;;;13.40;99.90;;;;;;4975539;28;20047;-85
2022/06/06 03:31:01;;;;;;;0.40;0.20;;;13.40;99.90;;;;;;4959393;28;20082;-86
2022/06/06 03:33:30;;;;;;;0.30;0.30;;;13.40;99.90;;;;;;4977969;28;20127;-86
2022/06/06 03:36:09;;;;;;;0.10;0.10;;;13.40;99.90;;;;;;4959318;28;20050;-86
2022/06/06 03:38:39;;;;;;;0.68;0.20;;;13.40;99.90;;;;;;4975316;28;20039;-85
2022/06/06 03:41:23;;;;;;;0.00;0.00;;;13.40;99.90;;;;;;4975331;28;20039;-85
2022/06/06 03:43:56;;;;;;;0.10;0.10;;;13.40;99.90;;;;;;4959022;28;20053;-88
2022/06/06 03:46:47;;;;;;;0.00;0.00;;;13.40;99.90;;;;;;4959105;28;20039;-87
2022/06/06 03:49:46;;;;;;;0.20;0.20;;;13.40;99.90;;;;;;4959057;28;20035;-88
2022/06/06 03:52:35;;;;;;;0.30;0.28;;;13.40;99.90;;;;;;4959064;28;20035;-88
2022/06/06 03:55:09;;;;;;;0.08;0.08;;;13.40;99.90;;;;;;4977067;28;20046;-88
2022/06/06 03:57:38;;;;;;;0.10;0.10;;;13.40;99.90;;;;;;4978519;28;20038;-88
2022/06/06 04:00:14;;;;;;;0.40;0.40;;;13.50;99.90;;;;;;4967858;28;20038;-86
2022/06/06 04:02:42;;;;;;;0.30;0.30;;;13.50;99.90;;;;;;4958909;28;20039;-86
2022/06/06 04:05:13;;;;;;;0.25;0.25;;;13.50;99.90;;;;;;4975203;28;20112;-86
2022/06/06 04:07:39;;;;;;;0.10;0.10;;;13.50;99.90;;;;;;4974868;28;20493;-86
2022/06/06 04:10:06;;;;;;;0.15;0.15;;;13.50;99.90;;;;;;4993634;28;20074;-86
2022/06/06 04:12:48;;;;;;;0.10;0.10;;;13.50;99.90;;;;;;4994040;28;20546;-86
2022/06/06 04:15:36;;;;;;;0.68;0.30;;;13.50;99.90;;;;;;4977069;28;20491;-86
2022/06/06 04:18:11;;;;;;;0.20;0.20;;;13.60;99.90;;;;;;4977865;28;20048;-84
2022/06/06 04:21:01;;;;;;;0.10;0.10;;;13.60;99.90;;;;;;4988478;28;20122;-84
2022/06/06 04:23:59;;;;;;;0.00;0.00;;;13.60;99.90;;;;;;4958897;28;20504;-84
2022/06/06 04:26:42;;;;;;;0.20;0.20;;;13.60;99.90;;;;;;4990381;28;20049;-84
2022/06/06 04:29:26;;;;;;;0.00;0.00;;;13.60;99.90;;;;;;4993818;28;20101;-84
2022/06/06 04:32:15;;;;;;;0.10;0.10;;;13.60;99.90;;;;;;4993740;28;20044;-84
2022/06/06 04:34:47;;;;;;;0.00;0.00;;;13.60;99.90;;;;;;4992673;28;20060;-84
2022/06/06 04:37:29;;;;;;;0.00;0.00;;;13.60;99.90;;;;;;4974580;28;20433;-84
2022/06/06 04:40:14;;;;;;;0.15;0.15;;;13.60;99.90;;;;;;4958155;28;20047;-83
2022/06/06 04:43:06;;;;;;;0.08;0.08;;;13.50;99.90;;;;;;4994089;28;20089;-83
2022/06/06 04:45:36;;;;;;;0.10;0.10;;;13.50;99.90;;;;;;4990661;28;20038;-83
2022/06/06 04:48:03;;;;;;;0.00;0.00;;;13.50;99.90;;;;;;4993476;28;20054;-83
2022/06/06 04:50:31;;;;;;;0.43;0.43;;;13.40;99.90;;;;;;4977133;28;20112;-87
2022/06/06 04:53:03;;;;;;;0.22;0.22;;;13.40;99.90;;;;;;4993056;28;20056;-87
2022/06/06 04:55:32;;;;;;;0.13;0.13;;;13.40;99.90;;;;;;4993213;28;20132;-87
2022/06/06 04:58:01;;;;;;;0.28;0.22;;;13.40;99.90;;;;;;4973524;28;20074;-86
2022/06/06 05:00:27;;;;;;;0.17;0.13;;;13.40;99.90;;;;;;4977368;28;20069;-86
2022/06/06 05:02:53;;;;;;;0.00;0.00;;;13.40;99.90;;;;;;4961040;28;20035;-87
2022/06/06 05:05:20;;;;;;;0.40;0.38;;;13.40;99.90;;;;;;4974611;28;20100;-87
2022/06/06 05:08:07;;;;;;;0.20;0.20;;;13.30;99.90;;;;;;4960802;28;20046;-86
2022/06/06 05:11:00;;;;;;;0.55;0.17;;;13.30;99.90;;;;;;4993196;28;20038;-86
2022/06/06 05:13:44;;;;;;;0.32;0.32;;;13.30;99.90;;;;;;4977005;28;20078;-86
2022/06/06 05:16:28;;;;;;;1.30;1.00;;;13.30;99.90;;;;;;4993441;28;20042;-86
2022/06/06 05:19:03;;;;;;;0.10;0.10;;;13.30;99.90;;;;;;4976740;28;20396;-86
2022/06/06 05:22:04;;;;;;;2.65;0.52;;;13.20;99.90;;;;;;4993121;28;20061;-86
2022/06/06 05:24:32;;;;;;;0.20;0.20;;;13.30;99.90;;;;;;4976832;28;20073;-83
2022/06/06 05:27:07;;;;;;;0.00;0.00;;;13.20;99.90;;;;;;4992492;28;20046;-83
2022/06/06 05:30:04;;;;;;;0.35;0.35;;;13.20;99.90;;;;;;4980414;28;20042;-84
2022/06/06 05:32:45;;;;;;;0.47;0.47;;;13.20;99.90;;;;;;4958163;28;20042;-83
2022/06/06 05:35:14;;;;;;;2.10;0.85;;;13.20;99.90;;;;;;4957438;28;20133;-83
2022/06/06 05:37:55;;;;;;;0.82;0.82;;;13.10;99.90;;;;;;4973489;28;20090;-83
2022/06/06 05:40:35;;;;;;;0.25;0.25;;;13.20;99.90;;;;;;4964920;28;20043;-86
2022/06/06 05:43:12;;;;;;;0.22;0.22;;;13.20;99.90;;;;;;4973586;28;20046;-86
2022/06/06 05:46:00;;;;;;;0.20;0.20;;;13.20;99.90;;;;;;5004158;28;20034;-85
2022/06/06 05:48:42;;;;;;;0.20;0.20;;;13.10;99.90;;;;;;4957206;28;20043;-85
2022/06/06 05:51:13;;;;;;;0.55;0.55;;;13.10;99.90;;;;;;4957185;28;20410;-86
2022/06/06 05:53:54;;;;;;;0.55;0.55;;;13.10;99.90;;;;;;4957102;28;20086;-86
2022/06/06 05:56:58;;;;;;;1.55;1.45;;;13.10;99.90;;;;;;4957381;28;20046;-86
2022/06/06 06:00:04;;;;;;;0.85;0.63;;;13.00;99.90;;;;;;4959163;28;20461;-85
2022/06/06 06:02:51;;;;;;;0.17;0.17;;;13.00;99.90;;;;;;4984001;28;20046;-86
2022/06/06 06:05:23;;;;;;;0.25;0.25;;;13.00;99.90;;;;;;4976197;28;20042;-85
2022/06/06 06:08:06;;;;;;;0.10;0.10;;;13.00;99.90;;;;;;4992551;28;20038;-85
2022/06/06 06:10:54;;;;;;;0.52;0.52;;;13.00;99.90;;;;;;4992462;28;20031;-85
2022/06/06 06:13:47;;;;;;;0.20;0.20;;;13.00;99.90;;;;;;4976541;28;20376;-86
2022/06/06 06:16:15;;;;;;;0.20;0.20;;;13.00;99.90;;;;;;4992032;28;20052;-86
2022/06/06 06:18:46;;;;;;;0.00;0.00;;;13.10;99.90;;;;;;4971536;28;20492;-86
2022/06/06 06:21:18;;;;;;;0.38;0.38;;;13.20;99.90;;;;;;4969248;28;20119;-86
2022/06/06 06:23:54;;;;;;;0.52;0.30;;;13.20;99.90;;;;;;4985689;28;20094;-86
2022/06/06 06:26:20;;;;;;;;;;;13.30;99.90;;;;;;4971747;28;20053;-86
2022/06/06 06:28:49;;;;;;;0.20;0.20;;;13.20;99.90;;;;;;4984852;28;19973;-84
2022/06/06 06:31:42;;;;;;;0.20;0.20;;;13.20;99.90;;;;;;4981888;28;20983;-82
2022/06/06 06:34:35;;;;;;;0.10;0.10;;;13.20;99.90;;;;;;4991781;28;20070;-82
2022/06/06 06:37:14;;;;;;;0.00;0.00;;;13.10;99.90;;;;;;4975958;28;20061;-82
2022/06/06 06:40:17;;;;;;;0.65;0.65;;;13.10;99.90;;;;;;4988705;28;20097;-82
2022/06/06 06:42:58;;;;;;;0.22;0.20;;;13.10;99.90;;;;;;4971253;28;20481;-82
2022/06/06 06:45:29;;;;;;;0.00;0.00;;;13.10;99.90;;;;;;4979438;28;20093;-82
2022/06/06 06:48:03;;;;;;;0.13;0.13;;;13.10;99.90;;;;;;4982308;28;20046;-82
2022/06/06 06:50:48;;;;;;;0.75;0.65;;;13.10;99.90;;;;;;4987683;28;20058;-82
2022/06/06 06:53:45;;;;;;;0.00;0.00;;;13.20;99.90;;;;;;4960256;28;20042;-82
2022/06/06 06:56:41;;;;;;;0.00;0.00;;;13.30;99.90;;;;;;4963655;28;20443;-82
2022/06/06 06:59:22;;;;;;;0.13;0.13;;;13.40;99.90;;;;;;4995741;28;20042;-82
2022/06/06 07:10:57;;;;;;;0.10;0.10;;;13.40;99.90;;;;;;4995290;28;20042;-82
2022/06/06 07:13:25;;;;;;;0.13;0.13;;;13.40;99.90;;;;;;4976898;28;20069;-82
2022/06/06 07:16:23;;;;;;;0.10;0.10;;;13.50;99.90;;;;;;4995407;28;20049;-82
2022/06/06 07:19:03;;;;;;;0.30;0.30;;;13.50;99.90;;;;;;4978711;28;20100;-84
2022/06/06 07:21:31;;;;;;;0.20;0.20;;;13.60;99.90;;;;;;4992594;28;20050;-85
2022/06/06 07:24:00;;;;;;;0.20;0.10;;;13.50;99.90;;;;;;4994878;28;20082;-83
2022/06/06 07:26:26;;;;;;;0.20;0.20;;;13.50;99.90;;;;;;4994145;28;20046;-84
2022/06/06 07:28:52;;;;;;;1.38;0.82;;;13.50;99.90;;;;;;4994472;28;20096;-85
2022/06/06 07:31:25;;;;;;;0.35;0.32;;;13.50;99.90;;;;;;4995135;28;20077;-85
2022/06/06 07:34:09;;;;;;;0.05;0.05;;;13.60;99.90;;;;;;4978451;28;20129;-84
2022/06/06 07:37:01;;;;;;;0.00;0.00;;;13.70;99.90;;;;;;4981808;28;20452;-86
2022/06/06 07:39:36;;;;;;;0.10;0.10;;;13.90;99.90;;;;;;4975440;28;20049;-87
2022/06/06 07:42:33;;;;;;;0.47;0.43;;;14.20;99.90;;;;;;4976258;28;20125;-86
2022/06/06 07:45:24;;;;;;;0.10;0.10;;;14.50;99.90;;;;;;4978231;28;20054;-86
2022/06/06 07:48:18;;;;;;;0.10;0.10;;;14.80;99.90;;;;;;4988681;28;20035;-87
2022/06/06 07:50:59;;;;;;;0.05;0.05;;;15.70;99.90;;;;;;4976297;28;20494;-87
2022/06/06 07:53:51;;;;;;;0.20;0.20;;;16.10;99.90;;;;;;4959072;28;20181;-86
2022/06/06 07:56:47;;;;;;;0.10;0.10;;;16.50;99.90;;;;;;4968018;28;20050;-86
2022/06/06 07:59:19;;;;;;;0.22;0.22;;;17.60;99.90;;;;;;4986050;28;20562;-86
2022/06/06 08:02:11;;;;;;;0.70;0.47;;;17.30;99.90;;;;;;4990783;28;20050;-86
2022/06/06 08:05:14;;;;;;;0.10;0.10;;;16.60;99.90;;;;;;4977945;28;20046;-85
2022/06/06 08:07:55;;;;;;;0.10;0.10;;;16.00;99.90;;;;;;4994858;28;20096;-86
2022/06/06 08:10:29;;;;;;;0.05;0.05;;;15.80;99.90;;;;;;4991133;28;20034;-89
2022/06/06 08:13:07;;;;;;;0.00;0.00;;;15.60;99.90;;;;;;4958936;28;20408;-88
2022/06/06 08:15:53;;;;;;;2.33;0.47;;;15.60;99.90;;;;;;4964605;28;20035;-88
2022/06/06 08:18:44;;;;;;;0.10;0.10;;;15.50;99.90;;;;;;4987051;28;20057;-90
2022/06/06 08:21:34;;;;;;;0.20;0.20;;;15.20;99.90;;;;;;4990419;28;20050;-90
2022/06/06 08:24:02;;;;;;;0.00;0.00;;;15.10;99.90;;;;;;4978367;28;20043;-88
2022/06/06 08:26:29;;;;;;;0.68;0.57;;;14.60;99.90;;;;;;4958550;28;20065;-87
2022/06/06 08:28:55;;;;;;;0.00;0.00;;;14.40;99.90;;;;;;4962728;28;20174;-88
2022/06/06 08:31:21;;;;;;;0.13;0.13;;;14.20;99.90;;;;;;4974809;28;20117;-87
2022/06/06 08:33:48;;;;;;;0.20;0.20;;;14.20;99.90;;;;;;4993973;28;20046;-87
2022/06/06 08:36:25;;;;;;;0.30;0.30;;;14.20;99.90;;;;;;4961854;28;20519;-87
2022/06/06 08:39:12;;;;;;;0.30;0.30;;;14.30;99.90;;;;;;4977975;28;20137;-88
2022/06/06 08:41:59;;;;;;;0.45;0.38;;;14.30;99.90;;;;;;4986777;28;20085;-87
2022/06/06 08:44:52;;;;;;;0.52;0.28;;;14.20;99.90;;;;;;4958221;28;20043;-83
2022/06/06 08:47:50;;;;;;;0.00;0.00;;;14.20;99.90;;;;;;4974480;28;20043;-82
2022/06/06 08:50:57;;;;;;;0.20;0.15;;;14.20;99.90;;;;;;4991131;28;20078;-82
2022/06/06 08:53:26;;;;;;;0.13;0.13;;;14.90;99.90;;;;;;4977186;28;20069;-82
2022/06/06 08:56:14;;;;;;;0.10;0.10;;;15.00;99.90;;;;;;4977573;28;20038;-82
2022/06/06 08:58:49;;;;;;;0.13;0.13;;;15.10;99.90;;;;;;4994341;28;20134;-82
2022/06/06 09:01:39;;;;;;;0.32;0.32;;;15.40;99.90;;;;;;4985127;28;20047;-85
2022/06/06 09:04:11;;;;;;;0.30;0.30;;;15.40;99.90;;;;;;4973668;28;20039;-84
2022/06/06 09:07:09;;;;;;;0.38;0.30;;;15.50;99.90;;;;;;4973632;28;20121;-85
2022/06/06 09:10:12;;;;;;;0.73;0.60;;;15.40;99.90;;;;;;4957617;28;20075;-85
2022/06/06 09:13:05;;;;;;;0.00;0.00;;;15.40;99.90;;;;;;4980043;28;20061;-85
2022/06/06 09:16:07;;;;;;;0.45;0.45;;;18.30;99.90;;;;;;4993131;28;20043;-86
2022/06/06 09:18:45;;;;;;;0.10;0.10;;;19.00;99.90;;;;;;4989134;28;20047;-86
2022/06/06 09:21:38;;;;;;;0.32;0.28;;;18.90;99.90;;;;;;4974087;28;20054;-85
2022/06/06 09:24:18;;;;;;;0.25;0.20;;;19.60;99.90;;;;;;4973593;28;20102;-85
2022/06/06 09:27:08;;;;;;;0.10;0.10;;;20.20;99.90;;;;;;4973694;28;20046;-86
2022/06/06 09:29:52;;;;;;;0.08;0.08;;;20.10;99.90;;;;;;4957513;28;20077;-85
2022/06/06 09:32:44;;;;;;;1.45;0.38;;;21.30;99.90;;;;;;4973706;28;20117;-86
2022/06/06 09:35:35;;;;;;;0.20;0.20;;;21.50;99.90;;;;;;4957064;28;20054;-87
2022/06/06 09:38:14;;;;;;;0.25;0.25;;;21.00;99.90;;;;;;4973749;28;20042;-83
2022/06/06 09:41:12;;;;;;;0.17;0.13;;;20.60;99.90;;;;;;4973617;28;20047;-83
2022/06/06 09:43:49;;;;;;;0.00;0.00;;;21.00;99.90;;;;;;4966607;28;20508;-83
2022/06/06 09:46:33;;;;;;;0.10;0.10;;;21.20;99.90;;;;;;4977551;28;20393;-82
2022/06/06 09:49:20;;;;;;;0.30;0.30;;;21.50;99.90;;;;;;4993044;28;20154;-85
2022/06/06 09:52:07;;;;;;;0.20;0.20;;;21.10;99.90;;;;;;4973076;28;20082;-85
2022/06/06 10:01:33;;;;;;;1.75;0.75;;;20.60;99.90;;;;;;4991359;28;20482;-86
2022/06/06 10:04:17;;;;;;;0.20;0.20;;;21.50;99.90;;;;;;4973174;28;20529;-86
2022/06/06 10:07:03;;;;;;;0.38;0.38;;;21.30;99.90;;;;;;4973202;28;20053;-87
2022/06/06 10:09:46;;;;;;;0.05;0.05;;;21.30;99.90;;;;;;4957588;28;20043;-87
2022/06/06 10:12:32;;;;;;;0.20;0.20;;;20.90;99.90;;;;;;4957133;28;20039;-86
2022/06/06 10:15:18;;;;;;;0.37;0.37;;;20.50;99.90;;;;;;4960947;28;20548;-88
2022/06/06 10:17:44;;;;;;;;;;;20.50;99.90;;;;;;4981985;28;20500;-86
2022/06/06 10:20:29;;;;;;;5.10;2.33;;;20.80;99.90;;;;;;4979690;28;19963;-87
2022/06/06 10:23:23;;;;;;;0.00;0.00;;;21.50;99.90;;;;;;4983289;28;20122;-85
2022/06/06 10:26:09;;;;;;;0.00;0.00;;;21.60;99.90;;;;;;4977244;28;20042;-85
2022/06/06 10:29:01;;;;;;;0.10;0.10;;;21.90;99.90;;;;;;4976868;28;20126;-85
2022/06/06 10:32:10;;;;;;;0.00;0.00;;;21.70;99.70;;;;;;4960634;28;20042;-85
2022/06/06 10:35:17;;;;;;;0.30;0.30;;;21.80;99.90;;;;;;4992463;28;20042;-85
2022/06/06 10:37:49;;;;;;;0.00;0.00;;;22.90;99.40;;;;;;4995901;28;20092;-85
2022/06/06 10:40:42;;;;;;;0.28;0.10;;;22.80;99.50;;;;;;4995832;28;20046;-83
2022/06/06 10:43:32;;;;;;;0.10;0.10;;;22.10;98.00;;;;;;4976930;28;20466;-82
2022/06/06 10:46:10;;;;;;;0.10;0.10;;;21.90;99.80;;;;;;4996258;28;20045;-83
2022/06/06 10:49:23;;;;;;;0.10;0.10;;;21.40;99.90;;;;;;4995074;28;20045;-83
2022/06/06 10:52:04;;;;;;;1.15;0.17;;;21.20;99.90;;;;;;4959450;28;20051;-83
2022/06/06 10:54:38;;;;;;;0.00;0.00;;;20.80;99.90;;;;;;4958160;28;20109;-83
2022/06/06 10:57:19;;;;;;;0.20;0.20;;;22.20;99.40;;;;;;4972834;28;20104;-85
2022/06/06 11:00:03;;;;;;;0.20;0.20;;;22.20;99.00;;;;;;4979504;28;20078;-85
2022/06/06 11:02:47;;;;;;;0.00;0.00;;;22.80;98.30;;;;;;4980730;28;20053;-86
2022/06/06 11:05:36;;;;;;;0.77;0.57;;;23.30;97.90;;;;;;4987899;23;20132;-89
2022/06/06 11:08:49;;;;;;;0.30;0.30;;;23.30;96.60;;;;;;5012149;28;20157;-89
2022/06/06 11:11:18;;;;;;;0.10;0.10;;;22.90;96.40;;;;;;4935400;28;20059;-91
2022/06/06 11:13:47;;;;;;;0.10;0.10;;;23.20;97.50;;;;;;4983966;28;20496;-88
2022/06/06 11:16:24;;;;;;;0.10;0.10;;;22.80;98.40;;;;;;5014666;28;20492;-88
2022/06/06 11:19:32;;;;;;;0.00;0.00;;;21.90;96.90;;;;;;4996883;28;20052;-88
2022/06/06 11:22:17;;;;;;;0.20;0.20;;;21.50;98.50;;;;;;5007688;28;20069;-88
2022/06/06 11:25:02;;;;;;;0.65;0.52;;;21.40;98.90;;;;;;5014000;28;20073;-89
2022/06/06 11:27:51;;;;;;;0.75;0.75;;;20.90;98.80;;;;;;4998216;28;20042;-89
2022/06/06 11:30:36;;;;;;;0.10;0.10;;;20.40;99.90;;;;;;5014620;28;20042;-85
2022/06/06 11:33:56;;;;;;;0.10;0.10;;;20.10;99.90;;;;;;5008569;28;20166;-84
2022/06/06 11:36:24;;;;;;;0.20;0.20;;;20.00;99.90;;;;;;4989214;28;20081;-84
2022/06/06 11:39:16;;;;;;;0.00;0.00;;;20.10;99.90;;;;;;4994724;28;20046;-83
2022/06/06 11:42:19;;;;;;;0.00;0.00;;;20.40;99.90;;;;;;4995424;28;20077;-84
2022/06/06 11:44:56;;;;;;;0.65;0.22;;;20.50;99.90;;;;;;4994636;28;20034;-84
2022/06/06 11:48:03;;;;;;;0.08;0.08;;;20.40;99.90;;;;;;4987665;28;20081;-84
2022/06/06 11:50:53;;;;;;;0.35;0.30;;;20.10;99.90;;;;;;5010754;28;20337;-84
2022/06/06 11:53:40;;;;;;;0.03;0.03;;;19.90;99.90;;;;;;5003220;28;20049;-84
2022/06/06 11:56:30;;;;;;;0.00;0.00;;;19.70;99.90;;;;;;5012004;28;20180;-84
2022/06/06 11:58:56;;;;;;;0.15;0.15;;;19.80;99.90;;;;;;4997405;28;20152;-81
2022/06/06 12:01:59;;;;;;;0.00;0.00;;;19.20;99.90;;;;;;4995875;28;20077;-82
2022/06/06 12:04:34;;;;;;;0.10;0.10;;;17.50;99.90;;;;;;4996003;28;20090;-81
2022/06/06 12:07:22;;;;;;;0.20;0.20;;;16.60;99.90;;;;;;5012560;28;20038;-82
2022/06/06 12:10:02;;;;;;;0.05;0.05;;;16.20;99.90;;;;;;5013790;28;20041;-82
2022/06/06 12:12:37;;;;;;;0.20;0.20;;;16.00;99.90;;;;;;5011018;28;20044;-82
2022/06/06 12:15:12;;;;;;;0.00;0.00;;;;;;;;;;5014072;28;20042;-82
2022/06/06 12:17:52;;;;;;;0.10;0.10;;;16.50;99.90;;;;;;4993490;28;20101;-82
2022/06/06 12:20:54;;;;;;;0.15;0.15;;;16.40;99.90;;;;;;5002010;28;20034;-87
2022/06/06 12:23:42;;;;;;;0.00;0.00;;;16.70;99.90;;;;;;5016226;28;20063;-87
2022/06/06 12:26:30;;;;;;;0.00;0.00;;;;;;;;;;5002563;28;20101;-87
2022/06/06 12:29:35;;;;;;;0.00;0.00;;;16.80;99.90;;;;;;5006948;28;20050;-87
2022/06/06 12:32:23;;;;;;;0.13;0.13;;;16.70;99.90;;;;;;5010041;28;20127;-86
2022/06/06 12:34:53;;;;;;;0.25;0.25;;;16.40;99.90;;;;;;4986756;28;20252;-87
2022/06/06 12:37:35;;;;;;;0.00;0.00;;;16.30;99.90;;;;;;5009924;28;20042;-86
2022/06/06 12:40:43;;;;;;;0.00;0.00;;;16.30;99.90;;;;;;5009229;28;20045;-87
2022/06/06 12:43:18;;;;;;;0.10;0.10;;;16.40;99.90;;;;;;5004404;28;20112;-87
2022/06/06 12:46:43;;;;;;;0.10;0.10;;;16.50;99.90;;;;;;5012883;28;20084;-88
2022/06/06 12:49:29;;;;;;;0.00;0.00;;;16.50;99.90;;;;;;4990725;28;20118;-88
2022/06/06 12:52:14;;;;;;;0.00;0.00;;;16.50;99.90;;;;;;5004417;28;20042;-87
2022/06/06 12:57:51;;;;;;;2.95;0.40;;;16.50;99.90;;;;;;5005409;28;20045;-93
2022/06/06 13:01:37;;;;;;;0.17;0.17;;;16.50;99.90;;;;;;5005355;28;20125;-92
2022/06/06 13:03:15;;;;;;;0.00;0.00;;;16.60;99.90;;;;;;5007876;28;20046;-90
2022/06/06 13:05:50;;;;;;;0.10;0.10;;;16.50;99.90;;;;;;4993193;28;20376;-90
2022/06/06 13:08:32;;;;;;;0.22;0.22;;;16.50;99.90;;;;;;4990296;28;20404;-89
2022/06/06 13:11:42;;;;;;;0.00;0.00;;;15.40;99.90;;;;;;5011187;28;20042;-87
2022/06/06 13:14:42;;;;;;;0.00;0.00;;;14.80;99.90;;;;;;4998812;28;20506;-89
2022/06/06 13:17:25;;;;;;;0.03;0.03;;;14.60;99.90;;;;;;4999325;28;20548;-89
2022/06/06 13:20:22;;;;;;;0.10;0.10;;;14.20;99.90;;;;;;4987002;28;20053;-89
2022/06/06 13:22:50;;;;;;;0.08;0.08;;;14.20;99.90;;;;;;4977268;28;20457;-89
2022/06/06 13:25:53;;;;;;;0.10;0.10;;;14.30;99.90;;;;;;4991126;28;20046;-89
2022/06/06 13:28:25;;;;;;;0.00;0.00;;;14.40;99.90;;;;;;4992980;28;20155;-85
2022/06/06 13:31:10;;;;;;;0.00;0.00;;;14.60;99.90;;;;;;4992618;28;20436;-84
2022/06/06 13:34:01;;;;;;;0.40;0.40;;;14.50;99.90;;;;;;5012394;28;20125;-84
2022/06/06 13:36:39;;;;;;;0.10;0.10;;;14.50;99.90;;;;;;4983825;28;20042;-84
2022/06/06 13:39:20;;;;;;;0.00;0.00;;;14.40;99.90;;;;;;4993859;28;20034;-84
2022/06/06 13:42:06;;;;;;;0.00;0.00;;;14.40;99.90;;;;;;4992315;28;20083;-84
2022/06/06 13:44:46;;;;;;;0.20;0.20;;;14.50;99.90;;;;;;5012002;28;20451;-85
2022/06/06 13:47:49;;;;;;;0.15;0.15;;;14.40;99.90;;;;;;5011037;28;20503;-85
2022/06/06 13:50:25;;;;;;;0.10;0.10;;;14.40;99.90;;;;;;5004786;28;20042;-85
2022/06/06 13:53:32;;;;;;;0.10;0.10;;;14.20;99.90;;;;;;4996899;28;20128;-85
2022/06/06 13:56:44;;;;;;;0.40;0.40;;;14.00;99.90;;;;;;5001136;28;20121;-85
2022/06/06 13:59:34;;;;;;;0.00;0.00;;;13.80;99.90;;;;;;4936482;28;20058;-83
2022/06/06 14:02:11;;;;;;;0.00;0.00;;;13.80;99.90;;;;;;4996479;28;20542;-84
2022/06/06 14:05:02;;;;;;;0.20;0.20;;;13.80;99.90;;;;;;4980573;28;20058;-84
2022/06/06 14:07:51;;;;;;;0.00;0.00;;;13.70;99.90;;;;;;4994805;28;20523;-84
2022/06/06 14:10:19;;;;;;;0.00;0.00;;;13.70;99.90;;;;;;4999841;28;20377;-84
2022/06/06 14:13:05;;;;;;;0.10;0.10;;;13.70;99.90;;;;;;5012830;28;20038;-84
2022/06/06 14:15:42;;;;;;;0.00;0.00;;;13.70;99.90;;;;;;5010687;28;20037;-84
2022/06/06 14:18:13;;;;;;;0.10;0.10;;;13.70;99.90;;;;;;5004553;28;20112;-84
2022/06/06 14:20:46;;;;;;;0.00;0.00;;;13.70;99.90;;;;;;5003777;28;20061;-84
2022/06/06 14:23:21;;;;;;;0.03;0.03;;;13.70;99.90;;;;;;5011628;28;20052;-83
2022/06/06 14:25:50;;;;;;;0.10;0.10;;;13.50;99.90;;;;;;4989905;28;20084;-83
2022/06/06 14:28:23;;;;;;;0.00;0.00;;;13.50;99.90;;;;;;5015324;28;20124;-83